createdAt,value
2023-03-12T00:01:18.089Z,4.63
2023-03-12T00:05:22.539Z,4.33
2023-03-12T00:09:25.192Z,4.80
2023-03-12T00:13:27.885Z,4.97
2023-03-12T00:17:31.040Z,4.73
2023-03-12T00:21:35.114Z,4.70
2023-03-12T00:25:38.059Z,4.40
2023-03-12T00:29:40.931Z,4.50
2023-03-12T00:33:43.615Z,4.47
2023-03-12T00:37:47.826Z,5.13
2023-03-12T00:41:50.509Z,5.00
2023-03-12T00:45:53.180Z,4.53
2023-03-12T00:49:56.163Z,5.27
2023-03-12T00:54:00.181Z,4.90
2023-03-12T00:58:02.957Z,5.10
2023-03-12T01:02:06.074Z,4.63
2023-03-12T01:06:08.806Z,4.77
2023-03-12T01:10:16.100Z,4.60
2023-03-12T01:14:18.849Z,4.80
2023-03-12T01:18:21.527Z,5.00
2023-03-12T01:22:24.485Z,4.80
2023-03-12T01:26:28.672Z,4.67
2023-03-12T01:30:31.914Z,4.47
2023-03-12T01:34:35.570Z,4.90
2023-03-12T01:38:38.250Z,4.80
2023-03-12T01:42:52.419Z,4.97
2023-03-12T01:46:55.062Z,4.70
2023-03-12T01:50:57.704Z,5.10
2023-03-12T01:55:04.595Z,4.57
2023-03-12T01:59:12.904Z,4.63
2023-03-12T02:03:16.564Z,4.27
2023-03-12T02:07:19.470Z,4.60
2023-03-12T02:11:22.418Z,5.07
2023-03-12T02:15:27.738Z,5.17
2023-03-12T02:19:36.924Z,4.97
2023-03-12T02:23:42.730Z,5.80
2023-03-12T02:27:47.499Z,5.40
2023-03-12T02:31:54.308Z,6.13
2023-03-12T02:35:57.669Z,6.37
2023-03-12T02:40:05.803Z,6.50
2023-03-12T02:44:11.715Z,5.77
2023-03-12T02:48:14.372Z,6.40
2023-03-12T02:52:17.016Z,6.47
2023-03-12T02:56:19.700Z,6.67
2023-03-12T03:00:27.213Z,6.30
2023-03-12T03:04:32.280Z,5.97
2023-03-12T03:08:35.276Z,6.20
2023-03-12T03:12:38.428Z,6.67
2023-03-12T03:16:42.980Z,6.63
2023-03-12T03:20:45.667Z,6.93
2023-03-12T03:24:48.707Z,6.70
2023-03-12T03:28:51.594Z,7.30
2023-03-12T03:32:55.627Z,6.40
2023-03-12T03:36:58.314Z,6.63
2023-03-12T03:41:01.229Z,6.33
2023-03-12T03:45:04.118Z,5.97
2023-03-12T03:49:08.676Z,6.03
2023-03-12T03:53:12.562Z,6.10
2023-03-12T03:57:15.249Z,6.30
2023-03-12T04:01:18.143Z,6.60
2023-03-12T04:05:22.259Z,6.70
2023-03-12T04:09:24.918Z,6.43
2023-03-12T04:13:27.575Z,6.70
2023-03-12T04:17:30.227Z,6.13
2023-03-12T04:21:34.724Z,6.23
2023-03-12T04:25:37.937Z,6.43
2023-03-12T04:29:42.267Z,5.83
2023-03-12T04:33:44.914Z,5.47
2023-03-12T04:37:49.017Z,6.53
2023-03-12T04:41:52.766Z,6.67
2023-03-12T04:45:55.450Z,6.73
2023-03-12T04:49:58.368Z,6.13
2023-03-12T04:54:02.424Z,6.37
2023-03-12T04:58:05.159Z,5.73
2023-03-12T05:02:08.055Z,5.93
2023-03-12T05:06:10.725Z,5.47
2023-03-12T05:10:14.780Z,5.63
2023-03-12T05:14:17.697Z,6.50
2023-03-12T05:18:21.347Z,6.00
2023-03-12T05:22:24.156Z,5.90
2023-03-12T05:26:31.407Z,5.73
2023-03-12T05:30:34.337Z,5.77
2023-03-12T05:34:36.987Z,5.47
2023-03-12T05:38:40.346Z,5.57
2023-03-12T05:42:44.341Z,5.47
2023-03-12T05:46:47.008Z,5.47
2023-03-12T05:50:49.930Z,5.40
2023-03-12T05:54:53.558Z,5.43
2023-03-12T05:58:58.049Z,5.57
2023-03-12T06:03:00.942Z,5.67
2023-03-12T06:07:03.673Z,5.30
2023-03-12T06:11:06.407Z,5.03
2023-03-12T06:15:11.945Z,6.50
2023-03-12T06:19:15.017Z,5.90
2023-03-12T06:23:19.196Z,5.60
2023-03-12T06:27:23.742Z,6.23
2023-03-12T06:31:28.039Z,6.00
2023-03-12T06:35:30.882Z,5.90
2023-03-12T06:39:34.062Z,6.30
2023-03-12T06:43:37.853Z,6.30
2023-03-12T06:47:41.917Z,6.20
2023-03-12T06:51:46.104Z,6.00
2023-03-12T06:55:51.139Z,6.30
2023-03-12T06:59:56.160Z,6.00
2023-03-12T07:04:00.163Z,6.50
2023-03-12T07:08:02.904Z,6.50
2023-03-12T07:12:06.220Z,5.83
2023-03-12T07:16:09.335Z,5.60
2023-03-12T07:20:14.416Z,5.50
2023-03-12T07:24:17.061Z,5.73
2023-03-12T07:28:20.183Z,5.40
2023-03-12T07:32:23.156Z,4.93
2023-03-12T07:36:29.731Z,5.13
2023-03-12T07:40:33.070Z,4.63
2023-03-12T07:44:37.784Z,5.37
2023-03-12T07:48:43.644Z,4.97
2023-03-12T07:52:48.229Z,5.20
2023-03-12T07:56:51.412Z,5.13
2023-03-12T08:00:56.301Z,4.93
2023-03-12T08:04:59.000Z,4.83
2023-03-12T08:09:03.441Z,4.77
2023-03-12T08:13:06.380Z,5.00
2023-03-12T08:17:09.316Z,4.90
2023-03-12T08:21:12.724Z,4.57
2023-03-12T08:25:20.978Z,4.63
2023-03-12T08:29:25.063Z,5.00
2023-03-12T08:33:28.983Z,4.50
2023-03-12T08:37:31.769Z,4.40
2023-03-12T08:41:35.776Z,4.03
2023-03-12T08:45:38.804Z,4.13
2023-03-12T08:49:41.773Z,4.20
2023-03-12T08:53:45.070Z,4.83
2023-03-12T08:57:49.218Z,3.80
2023-03-12T09:01:52.222Z,3.73
2023-03-12T09:06:04.938Z,3.73
2023-03-12T09:10:08.831Z,3.60
2023-03-12T09:14:57.452Z,3.80
2023-03-12T09:18:40.042Z,3.33
2023-03-12T09:22:42.907Z,3.10
2023-03-12T09:26:45.565Z,3.53
2023-03-12T09:30:49.621Z,3.50
2023-03-12T09:34:52.276Z,3.40
2023-03-12T09:38:55.313Z,2.80
2023-03-12T09:43:00.724Z,3.63
2023-03-12T09:47:06.890Z,3.13
2023-03-12T09:51:15.968Z,3.10
2023-03-12T09:55:21.393Z,3.30
2023-03-12T09:59:24.691Z,3.40
2023-03-12T10:03:46.754Z,3.00
2023-03-12T10:07:53.278Z,2.93
2023-03-12T10:12:00.302Z,3.30
2023-03-12T10:16:14.520Z,2.77
2023-03-12T10:20:51.049Z,2.73
2023-03-12T10:24:59.307Z,2.67
2023-03-12T10:29:05.641Z,3.60
2023-03-12T10:33:12.750Z,2.70
2023-03-12T10:37:19.409Z,3.20
2023-03-12T10:41:23.893Z,3.17
2023-03-12T10:45:32.209Z,2.80
2023-03-12T10:49:36.533Z,3.10
2023-03-12T10:53:44.623Z,3.80
2023-03-12T10:57:48.505Z,3.60
2023-03-12T11:01:53.676Z,4.23
2023-03-12T11:05:57.546Z,3.43
2023-03-12T11:10:21.193Z,3.73
2023-03-12T11:14:28.576Z,4.20
2023-03-12T11:18:36.005Z,4.10
2023-03-12T11:22:38.738Z,4.03
2023-03-12T11:26:49.834Z,4.77
2023-03-12T11:30:58.620Z,3.80
2023-03-12T11:35:01.983Z,4.40
2023-03-12T11:39:08.443Z,4.50
2023-03-12T11:43:41.984Z,4.57
2023-03-12T11:47:54.295Z,4.30
2023-03-12T11:52:03.332Z,3.77
2023-03-12T11:56:13.997Z,3.90
2023-03-12T12:00:20.675Z,4.03
2023-03-12T12:04:44.994Z,4.00
2023-03-12T12:09:08.594Z,3.80
2023-03-12T12:13:16.055Z,3.77
2023-03-12T12:17:29.113Z,4.30
2023-03-12T12:21:39.808Z,4.00
2023-03-12T12:25:53.649Z,3.83
2023-03-12T12:30:07.635Z,3.80
2023-03-12T12:34:42.312Z,4.33
2023-03-12T12:38:47.719Z,4.00
2023-03-12T12:43:25.858Z,4.20
2023-03-12T12:47:35.702Z,4.37
2023-03-12T12:51:42.220Z,5.53
2023-03-12T12:55:53.424Z,4.73
2023-03-12T13:00:12.312Z,4.57
2023-03-12T13:04:18.899Z,5.00
2023-03-12T13:08:38.244Z,5.20
2023-03-12T13:12:44.860Z,5.03
2023-03-12T13:16:48.502Z,5.20
2023-03-12T13:21:14.390Z,5.50
2023-03-12T13:25:27.244Z,5.03
2023-03-12T13:29:41.647Z,5.10
2023-03-12T13:33:46.327Z,5.13
2023-03-12T13:38:07.797Z,4.97
2023-03-12T13:42:45.344Z,5.97
2023-03-12T13:46:51.052Z,5.47
2023-03-12T13:50:57.987Z,5.20
2023-03-12T13:55:02.977Z,5.40
2023-03-12T13:59:09.617Z,5.07
2023-03-12T14:03:16.602Z,5.93
2023-03-12T14:07:33.487Z,5.23
2023-03-12T14:11:42.511Z,6.23
2023-03-12T14:15:50.545Z,5.40
2023-03-12T14:19:58.146Z,4.33
2023-03-12T14:24:01.721Z,5.93
2023-03-12T14:28:11.212Z,5.83
2023-03-12T14:32:17.619Z,4.33
2023-03-12T14:36:21.460Z,3.30
2023-03-12T14:40:26.779Z,3.73
2023-03-12T14:44:30.393Z,3.50
2023-03-12T14:48:36.847Z,3.83
2023-03-12T14:52:39.457Z,3.97
2023-03-12T14:56:45.693Z,4.00
2023-03-12T15:00:57.601Z,4.60
2023-03-12T15:05:02.731Z,4.57
2023-03-12T15:09:07.301Z,4.23
2023-03-12T15:13:12.443Z,5.20
2023-03-12T15:17:18.987Z,4.73
2023-03-12T15:21:23.635Z,4.93
2023-03-12T15:25:28.220Z,5.37
2023-03-12T15:29:31.542Z,5.30
2023-03-12T15:33:34.578Z,4.13
2023-03-12T15:37:40.930Z,3.53
2023-03-12T15:41:45.415Z,5.20
2023-03-12T15:45:48.857Z,5.00
2023-03-12T15:49:53.140Z,3.90
2023-03-12T15:54:05.190Z,3.70
2023-03-12T15:58:25.810Z,3.43
2023-03-12T16:02:39.453Z,3.63
2023-03-12T16:06:43.976Z,3.63
2023-03-12T16:10:49.392Z,3.60
2023-03-12T16:14:53.849Z,4.00
2023-03-12T16:18:58.189Z,3.43
2023-03-12T16:23:00.856Z,3.60
2023-03-12T16:27:07.111Z,3.80
2023-03-12T16:31:13.163Z,4.10
2023-03-12T16:35:17.254Z,3.53
2023-03-12T16:39:20.106Z,3.70
2023-03-12T16:43:25.680Z,3.67
2023-03-12T16:47:29.042Z,3.80
2023-03-12T16:51:31.996Z,4.00
2023-03-12T16:55:48.385Z,5.00
2023-03-12T16:59:52.763Z,3.80
2023-03-12T17:03:55.559Z,6.33
2023-03-12T17:07:59.250Z,4.37
2023-03-12T17:12:02.191Z,5.17
2023-03-12T17:16:08.181Z,4.40
2023-03-12T17:20:14.030Z,5.07
2023-03-12T17:24:17.109Z,3.30
2023-03-12T17:28:22.703Z,3.87
2023-03-12T17:32:31.450Z,4.60
2023-03-12T17:36:37.491Z,4.37
2023-03-12T17:40:41.481Z,4.87
2023-03-12T17:44:44.184Z,4.50
2023-03-12T17:48:48.571Z,3.80
2023-03-12T17:52:52.726Z,5.77
2023-03-12T17:56:56.816Z,5.80
2023-03-12T18:01:00.141Z,6.10
2023-03-12T18:05:04.457Z,5.13
2023-03-12T18:09:07.561Z,5.23
2023-03-12T18:13:11.452Z,5.60
2023-03-12T18:17:14.102Z,4.37
2023-03-12T18:21:18.112Z,4.33
2023-03-12T18:25:20.893Z,4.03
2023-03-12T18:29:23.858Z,4.20
2023-03-12T18:33:26.995Z,7.33
2023-03-12T18:37:32.026Z,5.40
2023-03-12T18:41:36.023Z,5.10
2023-03-12T18:45:42.695Z,4.77
2023-03-12T18:49:45.530Z,4.60
2023-03-12T18:53:49.799Z,4.13
2023-03-12T18:57:52.845Z,4.00
2023-03-12T19:01:55.538Z,3.90
2023-03-12T19:06:03.033Z,3.80
2023-03-12T19:10:08.745Z,3.97
2023-03-12T19:14:12.283Z,4.07
2023-03-12T19:18:14.965Z,3.70
2023-03-12T19:22:17.980Z,3.30
2023-03-12T19:26:22.025Z,3.77
2023-03-12T19:30:27.104Z,4.13
2023-03-12T19:34:30.064Z,4.38
2023-03-12T19:38:35.278Z,3.87
2023-03-12T19:42:39.359Z,3.87
2023-03-12T19:46:43.204Z,3.10
2023-03-12T19:50:45.894Z,3.37
2023-03-12T19:55:01.602Z,3.50
2023-03-12T19:59:08.445Z,3.40
2023-03-12T20:03:11.242Z,3.40
2023-03-12T20:07:14.032Z,3.07
2023-03-12T20:11:16.789Z,3.93
2023-03-12T20:15:21.212Z,3.30
2023-03-12T20:19:23.965Z,3.20
2023-03-12T20:23:26.726Z,3.30
2023-03-12T20:27:29.440Z,3.57
2023-03-12T20:31:34.489Z,3.37
2023-03-12T20:35:37.379Z,3.23
2023-03-12T20:39:41.569Z,3.40
2023-03-12T20:43:45.044Z,3.43
2023-03-12T20:47:49.408Z,3.23
2023-03-12T20:51:52.369Z,4.10
2023-03-12T20:55:55.378Z,4.40
2023-03-12T20:59:58.171Z,5.47
2023-03-12T21:04:02.502Z,4.83
2023-03-12T21:08:05.922Z,5.10
2023-03-12T21:12:08.627Z,4.57
2023-03-12T21:16:12.121Z,4.10
2023-03-12T21:20:19.523Z,3.90
2023-03-12T21:24:22.509Z,3.80
2023-03-12T21:28:25.539Z,3.53
2023-03-12T21:32:28.627Z,3.33
2023-03-12T21:36:34.978Z,3.20
2023-03-12T21:40:37.871Z,3.07
2023-03-12T21:44:40.573Z,3.20
2023-03-12T21:48:44.804Z,4.97
2023-03-12T21:52:49.432Z,4.03
2023-03-12T21:56:52.210Z,3.50
2023-03-12T22:01:03.778Z,3.20
2023-03-12T22:05:07.331Z,3.17
2023-03-12T22:09:11.637Z,2.80
2023-03-12T22:13:14.304Z,3.30
2023-03-12T22:17:17.278Z,3.00
2023-03-12T22:21:21.380Z,2.70
2023-03-12T22:25:25.760Z,3.13
2023-03-12T22:29:28.462Z,3.00
2023-03-12T22:33:31.537Z,2.87
2023-03-12T22:37:34.174Z,2.90
2023-03-12T22:41:38.218Z,2.67
2023-03-12T22:45:40.886Z,2.97
2023-03-12T22:49:43.926Z,2.77
2023-03-12T22:53:46.646Z,2.83
2023-03-12T22:57:53.516Z,3.00
2023-03-12T23:01:56.280Z,3.10
2023-03-12T23:05:59.335Z,3.33
2023-03-12T23:10:02.527Z,2.50
2023-03-12T23:14:06.587Z,3.23
2023-03-12T23:18:09.255Z,2.60
2023-03-12T23:22:13.584Z,3.00
2023-03-12T23:26:17.761Z,3.00
2023-03-12T23:30:22.184Z,3.07
2023-03-12T23:34:24.876Z,2.77
2023-03-12T23:38:28.880Z,2.63
2023-03-12T23:42:31.533Z,3.00
2023-03-12T23:46:35.567Z,2.60
2023-03-12T23:50:38.248Z,2.70
2023-03-12T23:54:40.931Z,2.70
2023-03-12T23:58:44.313Z,2.70
